createdAt,value
2022-11-14T00:00:07.978Z,98863.44
2022-11-14T00:02:35.525Z,98858.78
2022-11-14T00:05:02.254Z,98855.16
2022-11-14T00:07:30.865Z,98861.44
2022-11-14T00:09:57.483Z,98862.06
2022-11-14T00:12:24.099Z,98861.66
2022-11-14T00:14:51.733Z,98857.19
2022-11-14T00:17:19.020Z,98865.75
2022-11-14T00:19:45.703Z,98862.28
2022-11-14T00:22:12.346Z,98859.84
2022-11-14T00:24:38.910Z,98851.53
2022-11-14T00:27:05.473Z,98863.88
2022-11-14T00:29:32.234Z,98867.53
2022-11-14T00:31:58.779Z,98859.03
2022-11-14T00:34:25.455Z,98857.78
2022-11-14T00:36:52.074Z,98853.94
2022-11-14T00:39:18.760Z,98833.19
2022-11-14T00:41:45.317Z,98845.38
2022-11-14T00:44:11.996Z,98842.75
2022-11-14T00:46:38.744Z,98837.88
2022-11-14T00:49:05.494Z,98842.31
2022-11-14T00:51:33.521Z,98834.59
2022-11-14T00:54:03.422Z,98843.72
2022-11-14T00:56:30.058Z,98839.47
2022-11-14T00:58:56.634Z,98851.66
2022-11-14T01:01:23.251Z,98857.31
2022-11-14T01:03:51.257Z,98857.13
2022-11-14T01:06:20.841Z,98850.81
2022-11-14T01:08:49.901Z,98849.38
2022-11-14T01:11:19.886Z,98847.94
2022-11-14T01:13:46.870Z,98841.44
2022-11-14T01:16:13.847Z,98831.28
2022-11-14T01:18:44.443Z,98831.28
2022-11-14T01:21:13.615Z,98826.63
2022-11-14T01:23:40.376Z,98829.66
2022-11-14T01:26:10.899Z,98830.00
2022-11-14T01:28:38.153Z,98834.91
2022-11-14T01:31:18.982Z,98830.22
2022-11-14T01:33:49.405Z,98826.78
2022-11-14T01:36:16.206Z,98821.06
2022-11-14T01:38:42.865Z,98805.47
2022-11-14T01:41:12.813Z,98798.75
2022-11-14T01:43:40.105Z,98797.50
2022-11-14T01:46:06.768Z,98794.69
2022-11-14T01:48:36.845Z,98797.94
2022-11-14T01:51:06.370Z,98796.31
2022-11-14T01:53:33.023Z,98796.31
2022-11-14T01:56:04.819Z,98791.25
2022-11-14T01:58:34.213Z,98793.25
2022-11-14T02:01:01.133Z,98788.41
2022-11-14T02:03:28.240Z,98787.16
2022-11-14T02:05:56.713Z,98779.66
2022-11-14T02:08:25.287Z,98782.06
2022-11-14T02:10:51.886Z,98778.41
2022-11-14T02:13:18.554Z,98771.53
2022-11-14T02:15:45.201Z,98773.53
2022-11-14T02:18:12.451Z,98772.09
2022-11-14T02:20:43.323Z,98769.66
2022-11-14T02:23:11.794Z,98768.44
2022-11-14T02:25:39.580Z,98763.38
2022-11-14T02:28:07.949Z,98765.38
2022-11-14T02:30:34.621Z,98761.31
2022-11-14T02:33:16.543Z,98759.88
2022-11-14T02:35:43.105Z,98757.63
2022-11-14T02:38:09.767Z,98754.34
2022-11-14T02:40:36.320Z,98745.66
2022-11-14T02:43:02.906Z,98749.28
2022-11-14T02:45:29.557Z,98745.03
2022-11-14T02:47:56.220Z,98738.72
2022-11-14T02:50:22.810Z,98748.66
2022-11-14T02:52:49.402Z,98740.09
2022-11-14T02:55:16.100Z,98738.06
2022-11-14T02:57:42.690Z,98739.03
2022-11-14T03:00:14.587Z,98747.53
2022-11-14T03:02:41.902Z,98750.53
2022-11-14T03:05:08.784Z,98750.91
2022-11-14T03:07:35.535Z,98747.44
2022-11-14T03:10:02.640Z,98749.28
2022-11-14T03:12:29.353Z,98738.09
2022-11-14T03:14:55.936Z,98745.81
2022-11-14T03:17:24.619Z,98738.75
2022-11-14T03:19:51.287Z,98750.28
2022-11-14T03:22:17.886Z,98748.44
2022-11-14T03:24:44.511Z,98743.19
2022-11-14T03:27:11.114Z,98736.00
2022-11-14T03:29:37.684Z,98745.91
2022-11-14T03:32:04.558Z,98740.97
2022-11-14T03:34:31.127Z,98734.28
2022-11-14T03:36:57.825Z,98746.00
2022-11-14T03:39:24.417Z,98731.84
2022-11-14T03:41:51.350Z,98732.28
2022-11-14T03:44:18.027Z,98735.72
2022-11-14T03:46:44.630Z,98732.47
2022-11-14T03:49:11.199Z,98722.94
2022-11-14T03:51:37.838Z,98721.31
2022-11-14T03:54:04.588Z,98720.88
2022-11-14T03:56:31.130Z,98708.75
2022-11-14T03:58:57.797Z,98708.31
2022-11-14T04:01:24.456Z,98707.84
2022-11-14T04:03:51.121Z,98707.41
2022-11-14T04:06:17.679Z,98701.75
2022-11-14T04:08:44.434Z,98694.66
2022-11-14T04:11:11.059Z,98694.66
2022-11-14T04:13:37.749Z,98696.69
2022-11-14T04:16:04.967Z,98685.72
2022-11-14T04:18:31.846Z,98681.63
2022-11-14T04:20:58.673Z,98681.19
2022-11-14T04:23:25.282Z,98681.63
2022-11-14T04:25:51.823Z,98689.53
2022-11-14T04:28:18.480Z,98688.09
2022-11-14T04:30:45.339Z,98680.41
2022-11-14T04:33:12.198Z,98680.16
2022-11-14T04:35:38.807Z,98680.53
2022-11-14T04:38:05.501Z,98683.72
2022-11-14T04:40:32.119Z,98695.44
2022-11-14T04:42:58.673Z,98693.19
2022-11-14T04:45:25.321Z,98694.56
2022-11-14T04:47:51.968Z,98702.81
2022-11-14T04:50:18.818Z,98696.56
2022-11-14T04:52:45.406Z,98694.56
2022-11-14T04:55:15.273Z,98706.72
2022-11-14T04:57:41.829Z,98710.78
2022-11-14T05:00:09.050Z,98710.78
2022-11-14T05:02:35.659Z,98700.25
2022-11-14T05:05:02.261Z,98712.16
2022-11-14T05:07:28.948Z,98702.03
2022-11-14T05:09:55.563Z,98693.94
2022-11-14T05:12:22.116Z,98703.47
2022-11-14T05:14:48.811Z,98689.69
2022-11-14T05:17:15.400Z,98695.97
2022-11-14T05:19:45.239Z,98685.38
2022-11-14T05:22:11.873Z,98698.94
2022-11-14T05:24:38.411Z,98714.13
2022-11-14T05:27:05.026Z,98721.56
2022-11-14T05:29:31.835Z,98708.97
2022-11-14T05:31:58.446Z,98704.72
2022-11-14T05:34:25.259Z,98702.09
2022-11-14T05:36:51.880Z,98694.81
2022-11-14T05:39:19.318Z,98680.47
2022-11-14T05:41:48.242Z,98676.28
2022-11-14T05:44:14.805Z,98670.66
2022-11-14T05:46:41.503Z,98676.72
2022-11-14T05:49:08.097Z,98677.97
2022-11-14T05:51:34.660Z,98680.19
2022-11-14T05:54:01.228Z,98683.22
2022-11-14T05:56:27.843Z,98676.56
2022-11-14T05:58:54.390Z,98666.44
2022-11-14T06:01:20.989Z,98672.09
2022-11-14T06:03:48.895Z,98682.44
2022-11-14T06:06:18.331Z,98678.78
2022-11-14T06:08:44.935Z,98677.16
2022-11-14T06:11:16.505Z,98682.63
2022-11-14T06:13:44.052Z,98669.03
2022-11-14T06:16:13.443Z,98665.81
2022-11-14T06:18:40.533Z,98652.09
2022-11-14T06:21:23.326Z,98658.22
2022-11-14T06:23:50.460Z,98656.03
2022-11-14T06:26:23.857Z,98659.91
2022-11-14T06:28:52.315Z,98667.00
2022-11-14T06:31:21.026Z,98669.63
2022-11-14T06:33:48.210Z,98673.88
2022-11-14T06:36:15.287Z,98679.16
2022-11-14T06:38:43.114Z,98678.31
2022-11-14T06:41:12.129Z,98690.69
2022-11-14T06:43:42.094Z,98689.69
2022-11-14T06:46:11.305Z,98693.13
2022-11-14T06:48:38.846Z,98698.22
2022-11-14T06:51:05.993Z,98709.19
2022-11-14T06:53:35.768Z,98717.09
2022-11-14T06:56:18.173Z,98712.47
2022-11-14T06:58:47.149Z,98724.41
2022-11-14T07:01:15.408Z,98719.78
2022-11-14T07:03:43.532Z,98728.91
2022-11-14T07:06:15.576Z,98710.94
2022-11-14T07:08:42.588Z,98718.06
2022-11-14T07:11:12.925Z,98714.06
2022-11-14T07:13:39.549Z,98717.97
2022-11-14T07:16:06.448Z,98720.81
2022-11-14T07:18:33.995Z,98725.09
2022-11-14T07:21:04.140Z,98719.28
2022-11-14T07:23:31.955Z,98718.28
2022-11-14T07:26:03.191Z,98721.16
2022-11-14T07:28:30.277Z,98714.84
2022-11-14T07:30:57.228Z,98706.19
2022-11-14T07:33:23.805Z,98702.56
2022-11-14T07:35:51.714Z,98695.75
2022-11-14T07:38:18.270Z,98697.84
2022-11-14T07:40:59.082Z,98694.66
2022-11-14T07:43:26.941Z,98698.78
2022-11-14T07:45:53.964Z,98700.84
2022-11-14T07:48:21.923Z,98696.78
2022-11-14T07:50:48.621Z,98709.81
2022-11-14T07:53:16.703Z,98711.81
2022-11-14T07:55:43.299Z,98708.97
2022-11-14T07:58:10.113Z,98702.44
2022-11-14T08:00:36.737Z,98705.63
2022-11-14T08:03:03.408Z,98703.19
2022-11-14T08:05:29.970Z,98702.72
2022-11-14T08:07:56.594Z,98698.00
2022-11-14T08:10:23.162Z,98698.22
2022-11-14T08:13:24.859Z,98701.41
2022-11-14T08:15:45.728Z,98702.31
2022-11-14T08:18:12.409Z,98705.06
2022-11-14T08:20:38.993Z,98697.19
2022-11-14T08:23:07.219Z,98690.16
2022-11-14T08:25:33.989Z,98685.09
2022-11-14T08:28:00.570Z,98672.78
2022-11-14T08:30:27.975Z,98665.47
2022-11-14T08:32:54.730Z,98661.88
2022-11-14T08:35:22.712Z,98668.19
2022-11-14T08:37:49.380Z,98672.78
2022-11-14T08:40:16.165Z,98668.97
2022-11-14T08:42:42.760Z,98666.56
2022-11-14T08:45:10.813Z,98668.19
2022-11-14T08:47:37.443Z,98668.28
2022-11-14T08:50:04.504Z,98663.94
2022-11-14T08:52:31.076Z,98660.28
2022-11-14T08:54:57.674Z,98655.66
2022-11-14T08:57:27.715Z,98654.97
2022-11-14T08:59:55.428Z,98658.50
2022-11-14T09:02:22.005Z,98653.88
2022-11-14T09:04:48.647Z,98644.97
2022-11-14T09:07:15.460Z,98644.66
2022-11-14T09:09:42.242Z,98650.34
2022-11-14T09:12:08.816Z,98651.50
2022-11-14T09:14:35.498Z,98657.00
2022-11-14T09:17:05.958Z,98655.28
2022-11-14T09:19:33.972Z,98651.69
2022-11-14T09:22:03.805Z,98649.44
2022-11-14T09:24:30.430Z,98661.31
2022-11-14T09:26:57.393Z,98647.84
2022-11-14T09:29:24.074Z,98648.34
2022-11-14T09:31:52.424Z,98636.25
2022-11-14T09:34:19.129Z,98628.72
2022-11-14T09:36:46.662Z,98632.28
2022-11-14T09:39:13.429Z,98623.31
2022-11-14T09:42:01.351Z,98614.94
2022-11-14T09:44:42.054Z,98612.22
2022-11-14T09:47:18.100Z,98607.41
2022-11-14T09:49:51.843Z,98598.16
2022-11-14T09:52:38.642Z,98596.25
2022-11-14T09:55:20.556Z,98601.28
2022-11-14T09:57:47.670Z,98590.28
2022-11-14T10:00:15.602Z,98590.28
2022-11-14T10:02:52.557Z,98601.59
2022-11-14T10:05:42.214Z,98599.81
2022-11-14T10:08:32.069Z,98599.63
2022-11-14T10:11:07.799Z,98590.09
2022-11-14T10:13:50.040Z,98581.34
2022-11-14T10:16:31.843Z,98577.97
2022-11-14T10:19:14.849Z,98578.91
2022-11-14T10:21:42.469Z,98583.38
2022-11-14T10:24:44.392Z,98570.69
2022-11-14T10:27:19.119Z,98558.41
2022-11-14T10:29:57.633Z,98560.19
2022-11-14T10:32:39.454Z,98564.47
2022-11-14T10:35:24.358Z,98570.38
2022-11-14T10:38:01.644Z,98555.63
2022-11-14T10:40:38.951Z,98548.09
2022-11-14T10:43:28.275Z,98536.47
2022-11-14T10:46:03.025Z,98543.81
2022-11-14T10:48:40.777Z,98548.97
2022-11-14T10:51:23.789Z,98543.59
2022-11-14T10:54:05.907Z,98540.88
2022-11-14T10:56:33.225Z,98538.31
2022-11-14T10:58:59.819Z,98528.22
2022-11-14T11:01:36.342Z,98524.97
2022-11-14T11:04:28.791Z,98524.06
2022-11-14T11:06:58.352Z,98530.09
2022-11-14T11:09:45.795Z,98528.59
2022-11-14T11:12:19.994Z,98529.78
2022-11-14T11:14:48.952Z,98521.66
2022-11-14T11:17:20.601Z,98521.09
2022-11-14T11:19:48.976Z,98520.84
2022-11-14T11:22:40.326Z,98520.84
2022-11-14T11:25:23.636Z,98522.13
2022-11-14T11:28:07.352Z,98512.22
2022-11-14T11:30:34.120Z,98511.72
2022-11-14T11:33:16.032Z,98505.91
2022-11-14T11:35:43.711Z,98507.75
2022-11-14T11:38:15.684Z,98497.28
2022-11-14T11:40:46.455Z,98492.91
2022-11-14T11:43:39.219Z,98485.50
2022-11-14T11:46:17.160Z,98476.09
2022-11-14T11:48:48.236Z,98475.03
2022-11-14T11:51:19.728Z,98471.63
2022-11-14T11:53:57.350Z,98475.09
2022-11-14T11:56:30.693Z,98473.97
2022-11-14T11:59:25.738Z,98476.47
2022-11-14T12:01:52.511Z,98483.81
2022-11-14T12:04:19.224Z,98475.81
2022-11-14T12:06:56.377Z,98485.78
2022-11-14T12:09:48.649Z,98485.41
2022-11-14T12:12:44.141Z,98477.88
2022-11-14T12:15:27.159Z,98465.19
2022-11-14T12:18:04.678Z,98468.72
2022-11-14T12:20:32.366Z,98464.06
2022-11-14T12:23:07.052Z,98461.28
2022-11-14T12:25:44.449Z,98469.13
2022-11-14T12:28:23.703Z,98462.47
2022-11-14T12:30:57.145Z,98466.72
2022-11-14T12:33:29.519Z,98456.31
2022-11-14T12:36:00.198Z,98451.75
2022-11-14T12:38:34.919Z,98449.63
2022-11-14T12:41:02.581Z,98446.13
2022-11-14T12:43:36.410Z,98438.00
2022-11-14T12:46:09.733Z,98439.88
2022-11-14T12:48:38.460Z,98445.44
2022-11-14T12:51:28.979Z,98444.25
2022-11-14T12:53:57.494Z,98458.03
2022-11-14T12:56:53.938Z,98450.31
2022-11-14T12:59:35.443Z,98447.16
2022-11-14T13:02:22.234Z,98444.13
2022-11-14T13:05:11.464Z,98446.03
2022-11-14T13:07:54.406Z,98440.69
2022-11-14T13:10:31.795Z,98442.00
2022-11-14T13:13:26.711Z,98440.13
2022-11-14T13:16:11.066Z,98435.66
2022-11-14T13:19:06.406Z,98446.09
2022-11-14T13:21:48.184Z,98447.47
2022-11-14T13:24:20.503Z,98434.94
2022-11-14T13:26:51.212Z,98436.84
2022-11-14T13:29:48.699Z,98438.22
2022-11-14T13:32:55.110Z,98442.97
2022-11-14T13:35:41.029Z,98440.31
2022-11-14T13:38:22.997Z,98440.34
2022-11-14T13:41:11.041Z,98434.56
2022-11-14T13:43:53.154Z,98426.28
2022-11-14T13:46:50.563Z,98428.78
2022-11-14T13:49:49.988Z,98426.63
2022-11-14T13:52:17.166Z,98416.44
2022-11-14T13:54:47.859Z,98433.28
2022-11-14T13:57:28.161Z,98434.88
2022-11-14T14:00:16.990Z,98434.78
2022-11-14T14:03:11.094Z,98427.31
2022-11-14T14:05:46.001Z,98423.09
2022-11-14T14:08:37.908Z,98423.16
2022-11-14T14:11:26.545Z,98414.84
2022-11-14T14:14:14.052Z,98413.72
2022-11-14T14:16:51.892Z,98406.81
2022-11-14T14:19:36.895Z,98406.28
2022-11-14T14:22:15.811Z,98403.56
2022-11-14T14:24:53.617Z,98399.25
2022-11-14T14:27:50.240Z,98397.41
2022-11-14T14:30:18.499Z,98395.13
2022-11-14T14:33:10.196Z,98397.22
2022-11-14T14:35:40.887Z,98397.94
2022-11-14T14:38:13.656Z,98395.78
2022-11-14T14:40:42.421Z,98392.84
2022-11-14T14:43:21.598Z,98398.19
2022-11-14T14:45:53.225Z,98394.81
2022-11-14T14:48:25.580Z,98384.44
2022-11-14T14:50:55.040Z,98381.59
2022-11-14T14:53:23.313Z,98366.13
2022-11-14T14:56:00.686Z,98369.06
2022-11-14T14:58:27.781Z,98366.63
2022-11-14T15:01:10.690Z,98380.44
2022-11-14T15:03:49.537Z,98386.78
2022-11-14T15:06:39.185Z,98391.22
2022-11-14T15:09:16.865Z,98394.06
2022-11-14T15:11:46.366Z,98396.41
2022-11-14T15:14:17.138Z,98391.00
2022-11-14T15:16:46.746Z,98393.00
2022-11-14T15:19:19.187Z,98393.19
2022-11-14T15:21:46.415Z,98392.25
2022-11-14T15:24:17.385Z,98394.03
2022-11-14T15:26:45.857Z,98400.28
2022-11-14T15:29:23.268Z,98389.53
2022-11-14T15:31:54.059Z,98395.84
2022-11-14T15:34:29.823Z,98394.75
2022-11-14T15:37:19.434Z,98397.88
2022-11-14T15:39:46.926Z,98402.66
2022-11-14T15:42:28.248Z,98403.06
2022-11-14T15:44:55.855Z,98404.03
2022-11-14T15:47:28.484Z,98396.16
2022-11-14T15:50:14.732Z,98396.25
2022-11-14T15:52:52.177Z,98393.84
2022-11-14T15:55:21.710Z,98396.44
2022-11-14T15:58:00.992Z,98397.41
2022-11-14T16:00:35.170Z,98391.16
2022-11-14T16:03:02.222Z,98392.69
2022-11-14T16:05:31.434Z,98393.91
2022-11-14T16:07:58.189Z,98399.25
2022-11-14T16:10:27.344Z,98392.47
2022-11-14T16:12:54.340Z,98397.72
2022-11-14T16:15:21.756Z,98399.75
2022-11-14T16:17:49.967Z,98390.09
2022-11-14T16:20:20.087Z,98403.31
2022-11-14T16:22:48.629Z,98401.38
2022-11-14T16:25:18.635Z,98404.22
2022-11-14T16:27:45.989Z,98408.06
2022-11-14T16:30:14.784Z,98409.78
2022-11-14T16:32:46.247Z,98405.97
2022-11-14T16:35:22.995Z,98415.66
2022-11-14T16:37:50.381Z,98417.22
2022-11-14T16:40:22.870Z,98412.84
2022-11-14T16:42:50.382Z,98414.81
2022-11-14T16:45:17.844Z,98415.84
2022-11-14T16:47:44.517Z,98410.69
2022-11-14T16:50:11.145Z,98415.75
2022-11-14T16:52:39.258Z,98417.28
2022-11-14T16:55:07.458Z,98417.78
2022-11-14T16:57:34.633Z,98416.53
2022-11-14T17:00:07.913Z,98418.97
2022-11-14T17:02:34.490Z,98413.00
2022-11-14T17:05:01.393Z,98419.03
2022-11-14T17:07:32.662Z,98416.59
2022-11-14T17:10:00.511Z,98422.25
2022-11-14T17:12:28.488Z,98425.72
2022-11-14T17:14:55.246Z,98428.38
2022-11-14T17:17:21.931Z,98429.44
2022-11-14T17:19:48.690Z,98428.63
2022-11-14T17:22:17.531Z,98432.91
2022-11-14T17:24:48.016Z,98427.00
2022-11-14T17:27:14.596Z,98424.03
2022-11-14T17:29:41.181Z,98425.53
2022-11-14T17:32:07.896Z,98438.72
2022-11-14T17:34:34.535Z,98435.38
2022-11-14T17:37:01.095Z,98429.16
2022-11-14T17:39:27.875Z,98432.28
2022-11-14T17:41:54.455Z,98433.78
2022-11-14T17:44:21.217Z,98435.28
2022-11-14T17:46:48.352Z,98440.50
2022-11-14T17:49:14.972Z,98441.09
2022-11-14T17:51:41.555Z,98445.84
2022-11-14T17:54:08.908Z,98446.06
2022-11-14T17:56:35.559Z,98448.69
2022-11-14T17:59:02.594Z,98459.22
2022-11-14T18:01:31.378Z,98456.47
2022-11-14T18:04:03.010Z,98457.72
2022-11-14T18:06:31.212Z,98458.78
2022-11-14T18:08:57.913Z,98458.19
2022-11-14T18:11:24.600Z,98457.38
2022-11-14T18:13:54.449Z,98451.72
2022-11-14T18:16:21.139Z,98460.72
2022-11-14T18:18:47.767Z,98460.81
2022-11-14T18:21:17.071Z,98469.03
2022-11-14T18:23:43.670Z,98462.78
2022-11-14T18:26:12.032Z,98474.31
2022-11-14T18:28:39.104Z,98469.13
2022-11-14T18:31:10.067Z,98480.44
2022-11-14T18:33:39.470Z,98476.94
2022-11-14T18:36:09.105Z,98476.59
2022-11-14T18:38:35.916Z,98468.66
2022-11-14T18:41:07.274Z,98466.50
2022-11-14T18:43:34.259Z,98475.78
2022-11-14T18:46:05.066Z,98476.84
2022-11-14T18:48:31.840Z,98480.94
2022-11-14T18:51:04.078Z,98472.78
2022-11-14T18:53:33.061Z,98480.41
2022-11-14T18:56:03.795Z,98480.03
2022-11-14T18:58:30.486Z,98486.44
2022-11-14T19:00:57.166Z,98475.91
2022-11-14T19:03:23.849Z,98485.63
2022-11-14T19:05:50.520Z,98481.28
2022-11-14T19:08:18.537Z,98486.56
2022-11-14T19:10:45.518Z,98489.94
2022-11-14T19:13:12.117Z,98496.66
2022-11-14T19:15:38.789Z,98496.22
2022-11-14T19:18:05.422Z,98487.59
2022-11-14T19:20:32.087Z,98488.19
2022-11-14T19:22:59.191Z,98500.06
2022-11-14T19:25:25.829Z,98497.75
2022-11-14T19:27:52.483Z,98497.13
2022-11-14T19:30:19.192Z,98497.81
2022-11-14T19:32:46.052Z,98495.00
2022-11-14T19:35:18.971Z,98496.44
2022-11-14T19:37:47.061Z,98496.72
2022-11-14T19:40:14.186Z,98500.34
2022-11-14T19:42:40.871Z,98495.25
2022-11-14T19:45:08.057Z,98496.75
2022-11-14T19:47:34.707Z,98496.97
2022-11-14T19:50:01.520Z,98496.16
2022-11-14T19:52:28.326Z,98491.72
2022-11-14T19:54:56.075Z,98503.00
2022-11-14T19:57:22.732Z,98502.34
2022-11-14T19:59:49.298Z,98507.28
2022-11-14T20:02:16.681Z,98511.00
2022-11-14T20:04:46.727Z,98505.72
2022-11-14T20:07:13.456Z,98497.22
2022-11-14T20:09:41.399Z,98502.34
2022-11-14T20:12:08.098Z,98509.06
2022-11-14T20:14:34.731Z,98526.63
2022-11-14T20:17:01.397Z,98528.66
2022-11-14T20:19:28.377Z,98517.28
2022-11-14T20:21:55.615Z,98508.13
2022-11-14T20:24:24.424Z,98510.56
2022-11-14T20:26:51.259Z,98523.56
2022-11-14T20:29:17.919Z,98518.09
2022-11-14T20:31:46.951Z,98519.31
2022-11-14T20:34:13.684Z,98530.47
2022-11-14T20:37:09.200Z,98529.50
2022-11-14T20:39:31.568Z,98534.22
2022-11-14T20:41:58.495Z,98533.41
2022-11-14T20:44:25.267Z,98531.97
2022-11-14T20:46:51.927Z,98530.97
2022-11-14T20:49:18.590Z,98526.69
2022-11-14T20:51:45.223Z,98522.25
2022-11-14T20:54:26.959Z,98530.00
2022-11-14T20:56:53.672Z,98525.94
2022-11-14T20:59:20.320Z,98525.91
2022-11-14T21:01:50.194Z,98519.63
2022-11-14T21:04:16.962Z,98527.75
2022-11-14T21:06:43.608Z,98518.00
2022-11-14T21:09:10.331Z,98520.25
2022-11-14T21:11:36.894Z,98524.31
2022-11-14T21:14:05.523Z,98523.88
2022-11-14T21:16:35.240Z,98522.25
2022-11-14T21:19:03.695Z,98521.03
2022-11-14T21:21:34.390Z,98516.97
2022-11-14T21:24:01.268Z,98515.72
2022-11-14T21:26:35.166Z,98512.47
2022-11-14T21:29:06.191Z,98513.84
2022-11-14T21:31:36.738Z,98504.75
2022-11-14T21:34:06.373Z,98507.59
2022-11-14T21:36:48.656Z,98505.56
2022-11-14T21:39:16.441Z,98510.03
2022-11-14T21:41:44.408Z,98511.41
2022-11-14T21:44:13.776Z,98507.56
2022-11-14T21:46:40.922Z,98510.00
2022-11-14T21:49:07.599Z,98503.31
2022-11-14T21:51:34.382Z,98506.97
2022-11-14T21:54:06.351Z,98502.09
2022-11-14T21:56:35.561Z,98504.84
2022-11-14T21:59:18.980Z,98504.03
2022-11-14T22:02:03.979Z,98507.84
2022-11-14T22:04:31.656Z,98518.47
2022-11-14T22:06:59.695Z,98515.41
2022-11-14T22:09:28.244Z,98515.38
2022-11-14T22:11:55.865Z,98512.19
2022-11-14T22:14:22.663Z,98512.81
2022-11-14T22:16:49.427Z,98514.84
2022-11-14T22:19:16.123Z,98516.66
2022-11-14T22:21:42.697Z,98517.09
2022-11-14T22:24:09.339Z,98519.69
2022-11-14T22:26:39.733Z,98525.50
2022-11-14T22:29:07.299Z,98515.38
2022-11-14T22:31:33.913Z,98511.72
2022-11-14T22:34:00.617Z,98509.97
2022-11-14T22:36:27.903Z,98522.44
2022-11-14T22:38:56.392Z,98520.97
2022-11-14T22:41:32.300Z,98528.53
2022-11-14T22:43:59.804Z,98522.25
2022-11-14T22:46:27.597Z,98517.44
2022-11-14T22:48:55.006Z,98521.50
2022-11-14T22:51:23.928Z,98513.81
2022-11-14T22:53:53.052Z,98517.81
2022-11-14T22:56:21.904Z,98516.28
2022-11-14T22:58:49.034Z,98503.72
2022-11-14T23:01:19.899Z,98500.03
2022-11-14T23:03:48.348Z,98504.44
2022-11-14T23:06:17.646Z,98505.78
2022-11-14T23:08:44.997Z,98513.63
2022-11-14T23:11:14.888Z,98514.34
2022-11-14T23:13:45.223Z,98509.13
2022-11-14T23:16:14.385Z,98513.25
2022-11-14T23:18:41.785Z,98512.22
2022-11-14T23:21:14.672Z,98511.91
2022-11-14T23:23:42.176Z,98507.91
2022-11-14T23:26:12.075Z,98504.88
2022-11-14T23:28:39.217Z,98504.63
2022-11-14T23:31:06.881Z,98504.44
2022-11-14T23:33:34.159Z,98511.59
2022-11-14T23:36:01.131Z,98506.72
2022-11-14T23:38:30.541Z,98510.09
2022-11-14T23:40:59.503Z,98499.66
2022-11-14T23:43:27.060Z,98499.22
2022-11-14T23:45:53.905Z,98501.19
2022-11-14T23:48:22.382Z,98504.19
2022-11-14T23:50:51.918Z,98493.44
2022-11-14T23:53:19.130Z,98492.84
2022-11-14T23:56:01.525Z,98492.06
2022-11-14T23:58:29.444Z,98487.81
